Time;durP1;ratioP1;P1;durP2;ratioP2;P2;SDS_P1;SDS_P2;PMS_P1;PMS_P2;Temp;Humidity;BMP_temperature;BMP_pressure;BME280_temperature;BME280_humidity;BME280_pressure;Samples;Min_cycle;Max_cycle;Signal;HPM_P1;HPM_P2
2021/06/22 00:02:05;;;;;;;6.57;4.40;;;;;;;24.65;49.24;100789.25;5050676;28;20056;-64
2021/06/22 00:04:32;;;;;;;6.65;4.70;;;;;;;24.72;49.21;100785.38;5029610;28;20115;-65
2021/06/22 00:07:00;;;;;;;8.43;4.60;;;;;;;24.71;49.02;100791.69;5049205;28;20070;-64
2021/06/22 00:09:28;;;;;;;5.80;4.50;;;;;;;24.72;48.88;100790.75;5046964;28;20032;-64
2021/06/22 00:11:56;;;;;;;6.47;4.78;;;;;;;24.74;48.75;100784.38;5048653;28;20100;-63
2021/06/22 00:14:23;;;;;;;6.03;4.40;;;;;;;24.89;48.53;100780.09;5047554;28;25300;-64
2021/06/22 00:16:53;;;;;;;6.30;4.72;;;;;;;24.99;48.14;100786.91;5048561;28;20041;-64
2021/06/22 00:19:21;;;;;;;7.30;4.70;;;;;;;25.05;48.10;100788.47;5049463;28;20037;-65
2021/06/22 00:21:48;;;;;;;6.00;4.32;;;;;;;25.09;47.79;100784.69;5050479;28;20037;-64
2021/06/22 00:24:16;;;;;;;6.43;4.40;;;;;;;25.10;47.66;100784.63;5048690;28;20048;-64
2021/06/22 00:26:43;;;;;;;7.63;4.72;;;;;;;25.12;47.43;100776.44;5049701;28;20052;-64
2021/06/22 00:29:11;;;;;;;6.80;4.80;;;;;;;25.09;47.87;100773.88;5048244;28;20048;-64
2021/06/22 00:31:39;;;;;;;7.20;4.07;;;;;;;25.12;47.68;100765.66;5049615;28;20110;-64
2021/06/22 00:34:08;;;;;;;5.50;4.47;;;;;;;25.13;47.72;100762.00;5049389;28;20416;-64
2021/06/22 00:36:36;;;;;;;5.78;4.45;;;;;;;25.10;47.48;100756.72;5048867;28;20045;-64
2021/06/22 00:39:04;;;;;;;6.57;4.53;;;;;;;25.08;47.81;100755.91;5049931;28;20044;-64
2021/06/22 00:41:32;;;;;;;7.03;4.78;;;;;;;24.97;48.03;100759.09;5015407;28;20452;-64
2021/06/22 00:44:05;;;;;;;7.93;4.55;;;;;;;24.70;48.97;100747.63;5050032;28;20044;-64
2021/06/22 00:46:33;;;;;;;7.25;4.70;;;;;;;24.63;49.02;100738.03;5045818;28;20397;-63
2021/06/22 00:49:01;;;;;;;7.38;4.68;;;;;;;24.70;48.96;100735.94;5030062;28;20046;-64
2021/06/22 00:51:30;;;;;;;7.80;4.55;;;;;;;24.73;49.08;100731.28;5032741;28;20605;-64
2021/06/22 00:53:58;;;;;;;5.97;4.70;;;;;;;24.73;48.92;100725.91;5028296;28;20050;-64
2021/06/22 00:56:26;;;;;;;7.25;5.05;;;;;;;24.80;48.67;100715.72;5029549;28;20524;-64
2021/06/22 00:58:54;;;;;;;6.75;4.70;;;;;;;24.82;48.37;100711.09;5029248;28;20050;-64
2021/06/22 01:01:27;;;;;;;7.93;5.03;;;;;;;24.89;48.38;100709.88;5028206;28;20049;-64
2021/06/22 01:03:56;;;;;;;7.22;4.38;;;;;;;24.86;48.16;100708.22;5027087;28;20061;-64
2021/06/22 01:06:24;;;;;;;7.68;5.20;;;;;;;24.71;48.67;100716.09;5028854;28;20049;-64
2021/06/22 01:08:53;;;;;;;7.50;4.97;;;;;;;24.65;48.96;100717.25;5031462;28;20064;-64
2021/06/22 01:11:21;;;;;;;7.60;4.63;;;;;;;24.51;49.51;100715.13;5027239;28;20033;-65
2021/06/22 01:13:49;;;;;;;7.55;4.70;;;;;;;24.51;49.31;100714.25;5028945;28;20041;-64
2021/06/22 01:16:25;;;;;;;7.38;5.18;;;;;;;24.48;49.40;100726.03;5028850;28;20045;-64
2021/06/22 01:18:59;;;;;;;6.70;4.75;;;;;;;24.44;49.56;100719.03;5024244;28;20041;-64
2021/06/22 01:21:30;;;;;;;8.82;4.97;;;;;;;24.48;49.57;100723.34;5027571;28;20132;-64
2021/06/22 01:24:08;;;;;;;8.10;4.75;;;;;;;24.51;49.31;100730.44;5028138;28;20670;-64
2021/06/22 01:26:37;;;;;;;6.07;4.70;;;;;;;24.49;49.49;100732.31;5029147;28;20034;-64
2021/06/22 01:29:05;;;;;;;7.65;5.05;;;;;;;24.51;49.50;100738.53;5028064;28;20034;-64
2021/06/22 01:31:33;;;;;;;8.13;5.55;;;;;;;24.47;49.52;100735.13;5025610;28;20053;-64
2021/06/22 01:34:01;;;;;;;6.93;5.22;;;;;;;24.45;49.91;100731.59;4992386;28;20096;-64
2021/06/22 01:36:31;;;;;;;7.25;4.82;;;;;;;24.61;49.18;100726.44;5023411;28;20489;-64
2021/06/22 01:38:59;;;;;;;6.60;5.05;;;;;;;24.63;49.15;100725.41;5028896;28;20110;-64
2021/06/22 01:41:27;;;;;;;7.32;4.85;;;;;;;24.56;49.29;100731.13;5028995;28;20079;-64
2021/06/22 01:43:54;;;;;;;8.98;4.80;;;;;;;24.55;49.29;100738.34;5021037;28;20077;-63
2021/06/22 01:46:22;;;;;;;8.25;5.57;;;;;;;24.48;49.38;100742.25;5026388;28;20034;-63
2021/06/22 01:48:50;;;;;;;7.53;5.32;;;;;;;24.37;49.66;100749.91;5022648;28;20045;-64
2021/06/22 01:51:18;;;;;;;8.45;5.20;;;;;;;24.35;49.79;100750.94;5023705;28;20053;-65
2021/06/22 01:53:53;;;;;;;8.55;5.22;;;;;;;24.27;50.01;100762.03;5023960;28;20041;-64
2021/06/22 01:56:22;;;;;;;6.65;5.18;;;;;;;24.20;50.04;100764.13;5027304;28;20038;-65
2021/06/22 01:58:50;;;;;;;9.23;4.95;;;;;;;24.26;50.19;100773.78;5029016;28;20049;-65
2021/06/22 02:01:18;;;;;;;9.13;5.28;;;;;;;24.22;50.21;100775.69;5027756;28;20049;-65
2021/06/22 02:03:46;;;;;;;7.55;5.43;;;;;;;24.09;50.52;100770.84;5026775;28;20037;-64
2021/06/22 02:06:15;;;;;;;12.68;4.95;;;;;;;24.13;50.53;100775.19;5028431;28;20038;-64
2021/06/22 02:08:42;;;;;;;9.15;5.03;;;;;;;24.18;50.30;100770.47;5025696;28;20045;-64
2021/06/22 02:11:12;;;;;;;7.15;5.32;;;;;;;24.13;50.44;100775.19;5026899;28;20497;-65
2021/06/22 02:13:40;;;;;;;7.40;5.10;;;;;;;24.15;50.50;100781.41;5025539;28;20565;-65
2021/06/22 02:16:07;;;;;;;8.20;5.28;;;;;;;24.14;50.55;100788.63;5028096;28;20041;-64
2021/06/22 02:18:35;;;;;;;8.38;5.35;;;;;;;24.12;50.40;100786.91;5026575;28;20040;-65
2021/06/22 02:21:06;;;;;;;6.78;5.32;;;;;;;24.09;50.62;100797.84;5029035;28;20133;-64
2021/06/22 02:23:33;;;;;;;7.28;4.93;;;;;;;24.03;50.56;100801.63;5042641;28;20112;-65
2021/06/22 02:26:01;;;;;;;7.97;5.13;;;;;;;23.94;50.95;100802.00;5048680;28;20060;-64
2021/06/22 02:28:32;;;;;;;7.53;5.15;;;;;;;23.88;51.18;100804.94;5047007;28;20040;-64
2021/06/22 02:31:01;;;;;;;7.70;5.68;;;;;;;23.91;51.15;100806.63;5045038;28;20040;-64
2021/06/22 02:33:30;;;;;;;8.32;5.63;;;;;;;23.92;51.03;100803.00;5043079;28;20040;-64
2021/06/22 02:35:58;;;;;;;8.80;5.72;;;;;;;23.93;51.09;100811.03;5025402;28;20339;-64
2021/06/22 02:38:26;;;;;;;7.30;5.82;;;;;;;23.94;51.14;100820.00;5043787;28;20041;-64
2021/06/22 02:40:54;;;;;;;8.50;5.68;;;;;;;23.91;51.32;100825.50;5051370;28;20052;-64
2021/06/22 02:43:21;;;;;;;7.15;5.30;;;;;;;23.87;51.37;100822.06;5050852;28;20068;-65
2021/06/22 02:45:51;;;;;;;8.95;6.03;;;;;;;23.87;51.33;100823.88;5052556;28;20061;-65
2021/06/22 02:48:19;;;;;;;9.65;5.80;;;;;;;23.78;51.52;100817.88;5049162;28;20047;-65
2021/06/22 02:50:46;;;;;;;10.80;6.18;;;;;;;23.74;51.73;100820.75;5051763;28;20033;-64
2021/06/22 02:53:14;;;;;;;7.15;5.28;;;;;;;23.67;52.00;100822.81;5051215;28;20047;-65
2021/06/22 02:55:42;;;;;;;7.63;5.25;;;;;;;23.45;52.61;100829.88;5051942;28;20045;-65
2021/06/22 02:58:10;;;;;;;8.32;5.38;;;;;;;23.47;52.71;100828.06;5031744;28;20041;-65
2021/06/22 03:00:38;;;;;;;10.68;6.00;;;;;;;23.47;52.82;100825.34;5052080;28;20048;-65
2021/06/22 03:03:08;;;;;;;8.23;5.93;;;;;;;23.57;52.48;100823.19;5050145;28;20048;-64
2021/06/22 03:05:35;;;;;;;8.48;5.47;;;;;;;23.60;52.43;100820.38;5050471;28;20496;-64
2021/06/22 03:08:03;;;;;;;9.43;5.28;;;;;;;23.66;52.19;100822.84;5050784;28;20033;-64
2021/06/22 03:10:31;;;;;;;9.43;5.80;;;;;;;23.75;51.76;100806.34;5029288;28;20045;-65
2021/06/22 03:13:00;;;;;;;7.63;5.43;;;;;;;23.76;51.85;100806.25;5048822;28;20451;-64
2021/06/22 03:15:29;;;;;;;9.27;6.10;;;;;;;23.72;51.94;100798.34;5042071;28;20493;-64
2021/06/22 03:17:57;;;;;;;7.47;5.55;;;;;;;23.83;51.85;100802.41;5046974;28;20112;-64
2021/06/22 03:20:26;;;;;;;8.80;5.38;;;;;;;23.86;51.71;100806.81;5044633;28;20669;-65
2021/06/22 03:22:53;;;;;;;7.78;5.32;;;;;;;23.77;52.00;100808.03;5048859;28;20040;-65
2021/06/22 03:25:21;;;;;;;8.32;5.68;;;;;;;23.90;52.03;100802.16;5049529;28;20740;-64
2021/06/22 03:27:49;;;;;;;7.50;5.22;;;;;;;24.00;52.01;100801.75;5050772;28;20041;-65
2021/06/22 03:30:17;;;;;;;6.65;5.00;;;;;;;24.13;51.70;100804.84;5049812;28;20044;-65
2021/06/22 03:32:47;;;;;;;8.70;5.57;;;;;;;24.26;51.32;100805.28;5050834;28;20037;-65
2021/06/22 03:35:16;;;;;;;8.60;5.43;;;;;;;24.33;51.33;100806.78;5051292;28;20041;-64
2021/06/22 03:37:45;;;;;;;7.50;4.70;;;;;;;24.30;51.47;100799.69;5049764;28;20041;-65
2021/06/22 03:40:14;;;;;;;7.57;4.85;;;;;;;24.29;51.58;100805.13;5051494;28;20045;-66
2021/06/22 03:42:41;;;;;;;8.15;5.40;;;;;;;24.47;51.28;100816.09;5049864;28;20041;-65
2021/06/22 03:45:10;;;;;;;9.40;5.20;;;;;;;24.60;51.36;100819.16;5049665;28;20129;-65
2021/06/22 03:47:39;;;;;;;7.22;4.68;;;;;;;24.78;51.03;100806.69;5048864;28;20520;-66
2021/06/22 03:50:09;;;;;;;7.43;4.60;;;;;;;24.98;50.34;100804.06;5049101;28;20056;-64
2021/06/22 03:52:38;;;;;;;6.63;4.60;;;;;;;25.14;50.09;100801.59;5046392;28;20025;-64
2021/06/22 03:57:50;;;;;;;6.68;5.30;;;;;;;25.37;49.28;100817.66;5025610;28;20041;-64
2021/06/22 04:00:20;;;;;;;8.60;5.57;;;;;;;25.46;49.30;100832.59;5030087;28;20041;-64
2021/06/22 04:02:48;;;;;;;9.57;6.60;;;;;;;25.58;49.37;100830.25;5028560;28;20033;-64
2021/06/22 04:05:16;;;;;;;9.00;5.10;;;;;;;25.66;49.67;100825.38;5029540;28;20033;-65
2021/06/22 04:07:44;;;;;;;8.10;5.05;;;;;;;25.86;49.63;100813.63;5030146;28;20497;-65
2021/06/22 04:10:15;;;;;;;8.02;4.80;;;;;;;26.12;49.52;100817.81;5029744;28;20041;-65
2021/06/22 04:12:43;;;;;;;6.93;4.68;;;;;;;26.34;49.51;100831.22;5029443;28;20080;-65
2021/06/22 04:15:11;;;;;;;10.50;6.78;;;;;;;26.54;49.65;100844.66;5030862;28;20045;-65
2021/06/22 04:17:39;;;;;;;10.57;7.82;;;;;;;26.65;49.41;100853.13;5026219;28;20038;-65
2021/06/22 04:20:08;;;;;;;10.18;6.32;;;;;;;26.80;48.96;100852.38;5030438;28;20091;-65
2021/06/22 04:22:35;;;;;;;7.32;5.78;;;;;;;26.97;48.66;100854.28;5029490;28;20041;-65
2021/06/22 04:25:03;;;;;;;7.00;4.55;;;;;;;27.15;47.92;100853.31;5037409;28;20178;-65
2021/06/22 04:27:32;;;;;;;6.57;4.40;;;;;;;27.29;47.16;100869.75;5029090;28;20094;-65
2021/06/22 04:30:00;;;;;;;7.07;4.70;;;;;;;27.46;46.76;100859.84;5030646;28;20041;-65
2021/06/22 04:32:28;;;;;;;6.50;4.68;;;;;;;27.63;46.44;100859.88;5029612;28;20046;-65
2021/06/22 04:34:57;;;;;;;6.22;3.97;;;;;;;27.84;45.97;100858.72;5027659;28;20449;-65
2021/06/22 04:37:25;;;;;;;8.65;4.55;;;;;;;28.03;45.75;100866.72;5032093;28;20050;-64
2021/06/22 04:39:52;;;;;;;8.13;4.22;;;;;;;28.24;45.00;100872.84;5025454;28;20045;-65
2021/06/22 04:42:21;;;;;;;5.65;3.78;;;;;;;28.42;44.65;100872.66;5023339;28;20041;-65
2021/06/22 04:44:50;;;;;;;4.85;3.83;;;;;;;28.67;44.29;100876.72;5030068;28;20045;-66
2021/06/22 04:47:18;;;;;;;6.38;3.80;;;;;;;28.87;43.93;100885.50;5021105;28;20049;-65
2021/06/22 04:49:46;;;;;;;5.85;3.70;;;;;;;29.14;43.34;100872.13;5021315;28;20037;-65
2021/06/22 04:52:14;;;;;;;8.50;3.78;;;;;;;29.35;42.62;100858.22;5023764;28;20103;-65
2021/06/22 04:54:41;;;;;;;8.10;4.40;;;;;;;29.51;42.37;100875.38;5023752;28;20091;-65
2021/06/22 04:57:09;;;;;;;7.97;3.75;;;;;;;29.73;42.06;100892.13;5026913;28;20130;-65
2021/06/22 04:59:38;;;;;;;8.07;3.50;;;;;;;30.02;41.73;100896.66;5020764;28;20049;-65
2021/06/22 05:02:08;;;;;;;5.15;3.50;;;;;;;30.33;41.20;100897.41;5028201;28;20084;-65
2021/06/22 05:04:37;;;;;;;6.72;3.78;;;;;;;30.66;40.81;100900.72;5026302;28;20045;-65
2021/06/22 05:07:05;;;;;;;6.57;2.92;;;;;;;30.85;40.00;100894.94;5041563;28;20041;-66
2021/06/22 05:09:33;;;;;;;4.95;2.70;;;;;;;30.86;39.68;100896.66;5039975;28;20082;-66
2021/06/22 05:12:01;;;;;;;3.65;2.90;;;;;;;31.01;39.54;100897.50;5039005;28;20041;-65
2021/06/22 05:14:29;;;;;;;5.50;3.25;;;;;;;31.11;39.14;100879.56;5040076;28;20049;-65
2021/06/22 05:16:57;;;;;;;3.92;3.03;;;;;;;31.14;39.23;100871.16;5018027;28;20425;-65
2021/06/22 05:19:26;;;;;;;4.55;2.95;;;;;;;31.35;38.71;100877.88;5027628;28;20052;-65
2021/06/22 05:21:54;;;;;;;4.10;2.90;;;;;;;31.51;38.67;100872.22;5026678;28;20033;-65
2021/06/22 05:24:21;;;;;;;3.75;2.78;;;;;;;31.70;38.22;100877.31;5028575;28;20544;-66
2021/06/22 05:26:49;;;;;;;4.38;2.80;;;;;;;31.99;37.50;100885.16;5024136;28;20083;-66
2021/06/22 05:29:16;;;;;;;4.72;3.08;;;;;;;32.18;37.27;100890.22;5024704;28;20041;-65
2021/06/22 05:31:45;;;;;;;5.68;2.90;;;;;;;32.35;36.89;100898.09;5027145;28;20493;-66
2021/06/22 05:34:12;;;;;;;4.30;3.03;;;;;;;32.41;36.94;100902.22;5025937;28;20041;-65
2021/06/22 05:36:41;;;;;;;7.65;2.80;;;;;;;32.56;36.53;100903.81;5028330;28;20030;-65
2021/06/22 05:39:09;;;;;;;5.93;3.20;;;;;;;32.81;36.17;100911.13;5010398;28;20060;-66
2021/06/22 05:41:37;;;;;;;3.28;2.75;;;;;;;32.90;36.21;100915.88;5029981;28;20508;-66
2021/06/22 05:44:05;;;;;;;6.03;3.08;;;;;;;32.94;35.85;100906.47;5040516;28;20497;-66
2021/06/22 05:46:33;;;;;;;5.10;2.83;;;;;;;33.10;35.44;100895.22;5027614;28;20073;-65
2021/06/22 05:49:02;;;;;;;6.68;3.42;;;;;;;33.25;35.18;100890.47;5027128;28;20042;-66
2021/06/22 05:51:29;;;;;;;4.70;2.78;;;;;;;33.58;34.69;100868.69;5028475;28;20038;-65
2021/06/22 05:53:59;;;;;;;4.15;2.90;;;;;;;33.90;34.28;100863.41;5026650;28;20049;-65
2021/06/22 05:56:27;;;;;;;4.68;2.78;;;;;;;34.16;34.13;100864.03;5027677;28;20052;-66
2021/06/22 05:58:55;;;;;;;4.20;2.88;;;;;;;34.41;33.44;100880.25;5029101;28;20557;-66
2021/06/22 06:01:22;;;;;;;7.45;2.90;;;;;;;34.39;33.37;100885.00;5028018;28;20045;-66
2021/06/22 06:03:50;;;;;;;4.05;2.72;;;;;;;34.42;33.26;100897.59;5028189;28;20033;-65
2021/06/22 06:06:18;;;;;;;4.60;2.63;;;;;;;34.58;32.90;100900.81;5028736;28;20446;-66
2021/06/22 06:08:46;;;;;;;2.90;2.60;;;;;;;34.72;32.16;100890.47;5027267;28;20045;-66
2021/06/22 06:11:15;;;;;;;3.72;2.70;;;;;;;34.72;31.68;100881.38;5026995;28;20608;-66
2021/06/22 06:13:43;;;;;;;4.30;2.92;;;;;;;34.61;31.71;100892.31;5030567;28;20037;-66
2021/06/22 06:16:11;;;;;;;5.00;2.90;;;;;;;34.60;31.49;100893.31;5035688;28;20041;-66
2021/06/22 06:18:39;;;;;;;3.80;2.72;;;;;;;34.73;31.47;100903.19;5032972;28;20048;-66
2021/06/22 06:21:07;;;;;;;6.03;3.25;;;;;;;34.60;31.68;100896.94;5034101;28;20048;-65
2021/06/22 06:23:39;;;;;;;5.82;3.20;;;;;;;34.33;31.81;100901.97;5046886;28;20047;-66
2021/06/22 06:26:10;;;;;;;5.88;2.85;;;;;;;34.36;32.10;100898.97;5054381;28;20405;-66
2021/06/22 06:28:43;;;;;;;4.40;2.80;;;;;;;34.34;32.44;100900.94;5032357;28;20037;-66
2021/06/22 06:31:11;;;;;;;5.95;2.92;;;;;;;34.30;31.93;100893.97;5026666;28;20618;-66
2021/06/22 06:33:39;;;;;;;3.67;2.90;;;;;;;34.18;31.71;100900.44;5025739;28;20427;-65
2021/06/22 06:36:07;;;;;;;3.83;2.53;;;;;;;34.35;31.66;100902.69;5025504;28;20535;-65
2021/06/22 06:38:34;;;;;;;4.88;2.78;;;;;;;34.36;31.43;100894.34;5028968;28;20049;-65
2021/06/22 06:41:02;;;;;;;7.78;3.22;;;;;;;34.25;31.85;100897.09;5047235;28;20497;-65
2021/06/22 06:43:30;;;;;;;4.45;2.63;;;;;;;34.28;31.73;100902.31;5027683;28;20060;-65
2021/06/22 06:46:00;;;;;;;6.47;3.08;;;;;;;34.15;31.66;100909.75;5035189;28;20191;-65
2021/06/22 06:48:28;;;;;;;6.32;3.67;;;;;;;34.07;32.01;100900.44;5027805;28;20106;-65
2021/06/22 06:50:56;;;;;;;5.90;3.08;;;;;;;33.95;32.46;100908.63;5032569;28;20099;-65
2021/06/22 06:53:24;;;;;;;4.30;3.00;;;;;;;34.14;32.47;100905.28;5031771;28;20048;-65
2021/06/22 06:55:52;;;;;;;5.22;3.00;;;;;;;34.29;32.81;100903.19;5025039;28;20109;-65
2021/06/22 06:58:20;;;;;;;3.53;2.58;;;;;;;34.34;32.61;100906.44;5024188;28;20034;-65
2021/06/22 07:00:48;;;;;;;8.07;3.20;;;;;;;34.27;32.59;100900.56;5023465;28;20053;-66
2021/06/22 07:03:18;;;;;;;4.65;2.88;;;;;;;34.59;32.54;100894.34;5028294;28;20041;-65
2021/06/22 07:05:46;;;;;;;5.65;2.92;;;;;;;34.91;32.20;100906.28;5025488;28;20042;-65
2021/06/22 07:08:15;;;;;;;5.15;3.40;;;;;;;34.97;32.15;100900.28;5029815;28;20061;-65
2021/06/22 07:10:43;;;;;;;4.43;3.10;;;;;;;34.95;32.24;100898.66;5024031;28;20037;-65
2021/06/22 07:13:15;;;;;;;7.28;2.47;;;;;;;34.93;32.35;100900.63;5023536;28;20106;-66
2021/06/22 07:15:43;;;;;;;6.65;3.10;;;;;;;35.04;32.52;100908.84;5023075;28;20421;-66
2021/06/22 07:18:11;;;;;;;3.90;2.50;;;;;;;35.23;32.07;100900.84;5027261;28;20722;-66
2021/06/22 07:20:41;;;;;;;8.85;3.15;;;;;;;35.17;32.19;100896.72;5025162;28;20049;-66
2021/06/22 07:23:08;;;;;;;5.90;3.00;;;;;;;35.04;32.60;100900.63;5026408;28;20049;-65
2021/06/22 07:25:37;;;;;;;7.78;3.10;;;;;;;34.99;32.50;100902.88;5023257;28;20064;-65
2021/06/22 07:28:05;;;;;;;6.00;2.85;;;;;;;34.87;32.25;100903.91;5023449;28;21039;-65
2021/06/22 07:30:33;;;;;;;6.28;3.10;;;;;;;34.83;32.22;100903.31;5028325;28;20065;-65
2021/06/22 07:33:01;;;;;;;5.97;3.00;;;;;;;34.83;32.96;100902.44;5022317;28;20049;-65
2021/06/22 07:35:32;;;;;;;4.05;3.08;;;;;;;35.22;32.67;100899.09;5023184;28;20119;-66
2021/06/22 07:38:01;;;;;;;5.03;2.75;;;;;;;35.30;32.25;100896.56;5022895;28;20135;-66
2021/06/22 07:40:29;;;;;;;5.15;3.88;;;;;;;35.35;32.31;100901.66;5022459;28;20054;-66
2021/06/22 07:42:58;;;;;;;5.50;3.10;;;;;;;35.28;32.58;100905.91;5023075;28;20179;-66
2021/06/22 07:45:26;;;;;;;4.70;2.75;;;;;;;35.01;32.85;100898.13;5023433;28;20046;-66
2021/06/22 07:47:55;;;;;;;5.80;3.75;;;;;;;34.82;33.64;100896.06;5022077;28;20113;-65
2021/06/22 07:50:23;;;;;;;6.43;3.33;;;;;;;35.12;33.58;100892.59;5025850;28;20512;-66
2021/06/22 07:52:51;;;;;;;6.72;3.00;;;;;;;35.18;33.27;100892.94;5051286;28;20025;-65
2021/06/22 07:55:20;;;;;;;5.80;3.03;;;;;;;35.21;33.45;100899.22;5037376;28;20099;-66
2021/06/22 07:57:51;;;;;;;6.95;3.40;;;;;;;35.52;33.21;100898.31;5020885;28;20033;-66
2021/06/22 08:00:38;;;;;;;5.88;3.10;;;;;;;35.71;32.78;100895.72;5020431;28;20117;-66
2021/06/22 08:03:07;;;;;;;5.97;3.30;;;;;;;35.84;32.92;100901.88;5030030;28;20033;-64
2021/06/22 08:05:34;;;;;;;6.32;2.95;;;;;;;35.84;32.98;100896.38;5027013;28;20052;-65
2021/06/22 08:08:02;;;;;;;4.03;3.03;;;;;;;35.90;33.07;100901.38;5025372;28;20045;-66
2021/06/22 08:10:31;;;;;;;6.57;3.60;;;;;;;36.03;32.63;100897.53;5022913;28;20128;-66
2021/06/22 08:12:59;;;;;;;4.97;3.17;;;;;;;35.68;33.09;100903.34;5020617;28;20073;-65
2021/06/22 08:15:27;;;;;;;5.18;3.20;;;;;;;35.31;33.42;100905.69;5020033;28;20037;-65
2021/06/22 08:17:55;;;;;;;6.05;3.17;;;;;;;35.24;33.21;100910.81;5020147;28;20045;-65
2021/06/22 08:20:23;;;;;;;5.00;3.17;;;;;;;35.20;33.09;100912.03;5020625;28;20073;-66
2021/06/22 08:22:53;;;;;;;5.03;3.40;;;;;;;34.98;33.93;100917.63;5021199;28;20445;-66
2021/06/22 08:25:23;;;;;;;5.85;3.33;;;;;;;34.88;33.70;100916.63;5034653;28;20560;-66
2021/06/22 08:27:52;;;;;;;8.43;4.22;;;;;;;35.03;33.65;100909.84;5004617;28;20758;-66
2021/06/22 08:30:22;;;;;;;5.25;3.05;;;;;;;35.17;33.64;100906.81;5040124;28;20052;-66
2021/06/22 08:32:50;;;;;;;6.20;3.20;;;;;;;35.19;33.85;100902.03;5042544;28;20507;-66
2021/06/22 08:35:18;;;;;;;5.10;3.72;;;;;;;35.31;33.87;100913.91;5028524;28;20103;-66
2021/06/22 08:37:46;;;;;;;5.68;3.60;;;;;;;34.92;34.16;100913.47;5025049;28;20045;-66
2021/06/22 08:40:15;;;;;;;7.47;3.22;;;;;;;34.97;34.16;100921.34;5025854;28;20060;-66
2021/06/22 08:42:43;;;;;;;8.18;3.00;;;;;;;35.05;34.27;100918.84;5006092;28;20132;-66
2021/06/22 08:45:15;;;;;;;4.88;3.35;;;;;;;35.24;34.20;100912.69;5025198;28;20159;-66
2021/06/22 08:47:43;;;;;;;6.72;3.13;;;;;;;35.30;34.57;100917.66;5024830;28;20111;-66
2021/06/22 08:50:13;;;;;;;6.47;3.67;;;;;;;35.37;34.29;100918.88;5028291;28;20042;-66
2021/06/22 08:52:42;;;;;;;7.22;3.67;;;;;;;35.64;34.09;100921.13;5029120;28;20091;-66
2021/06/22 08:55:25;;;;;;;5.13;3.00;;;;;;;35.90;33.71;100925.25;5022326;28;20405;-66
2021/06/22 08:57:55;;;;;;;8.65;3.30;;;;;;;35.77;34.10;100928.19;5025030;28;20510;-65
2021/06/22 09:00:25;;;;;;;6.30;3.30;;;;;;;35.49;34.27;100932.44;5021395;28;20044;-65
2021/06/22 09:03:04;;;;;;;7.47;3.20;;;;;;;35.50;34.69;100930.56;5025293;28;20124;-65
2021/06/22 09:05:32;;;;;;;5.72;3.42;;;;;;;35.42;35.04;100933.97;5023595;28;20044;-65
2021/06/22 09:08:00;;;;;;;6.20;3.10;;;;;;;35.56;35.21;100939.13;5023028;28;20064;-65
2021/06/22 09:10:30;;;;;;;8.43;3.58;;;;;;;35.43;35.72;100941.19;5039526;28;20045;-65
2021/06/22 09:12:59;;;;;;;6.10;3.42;;;;;;;35.00;36.54;100938.44;5039538;28;20862;-65
2021/06/22 09:15:30;;;;;;;6.85;3.22;;;;;;;34.61;37.28;100939.84;5022607;28;20037;-65
2021/06/22 09:17:59;;;;;;;7.25;3.05;;;;;;;34.47;37.78;100947.44;5023956;28;20045;-65
2021/06/22 09:20:35;;;;;;;7.72;3.58;;;;;;;34.35;37.69;100949.31;5024732;28;20037;-65
2021/06/22 09:23:12;;;;;;;8.63;3.40;;;;;;;34.63;37.62;100946.06;5018544;28;20055;-66
2021/06/22 09:25:40;;;;;;;4.93;3.17;;;;;;;34.50;37.61;100947.19;5034907;28;20049;-66
2021/06/22 09:28:08;;;;;;;5.68;3.30;;;;;;;34.61;37.76;100958.16;5022792;28;20108;-66
2021/06/22 09:30:46;;;;;;;4.68;3.30;;;;;;;35.02;37.37;100952.91;5025075;28;20065;-66
2021/06/22 09:33:24;;;;;;;4.32;3.13;;;;;;;34.98;37.55;100959.66;5038070;28;20049;-66
2021/06/22 09:35:59;;;;;;;9.50;4.85;;;;;;;35.08;37.64;100955.13;5041725;28;20033;-66
2021/06/22 09:38:32;;;;;;;7.20;4.20;;;;;;;35.08;37.83;100957.00;5046237;28;20065;-66
2021/06/22 09:41:09;;;;;;;5.85;3.20;;;;;;;35.08;37.70;100954.25;5044415;28;20037;-66
2021/06/22 09:43:38;;;;;;;6.78;3.60;;;;;;;34.71;38.43;100951.84;5044810;28;20099;-65
2021/06/22 09:46:08;;;;;;;7.65;3.47;;;;;;;34.64;38.75;100958.81;5045885;28;20512;-66
2021/06/22 09:48:50;;;;;;;7.55;3.05;;;;;;;34.70;38.59;100957.41;5044286;28;20144;-65
2021/06/22 09:51:18;;;;;;;5.22;3.25;;;;;;;34.64;39.12;100956.06;5024556;28;21556;-64
2021/06/22 09:53:45;;;;;;;4.97;3.50;;;;;;;34.78;38.72;100966.81;5025277;28;20103;-65
2021/06/22 09:56:21;;;;;;;6.80;3.40;;;;;;;34.55;39.40;100970.50;5024758;28;20069;-65
2021/06/22 09:58:50;;;;;;;7.15;3.65;;;;;;;34.40;39.95;100958.91;5023603;28;20429;-65
2021/06/22 10:01:33;;;;;;;6.40;3.38;;;;;;;34.33;40.02;100960.41;5024989;28;20045;-65
2021/06/22 10:04:19;;;;;;;5.15;3.45;;;;;;;34.44;40.03;100966.91;5023809;28;20115;-64
2021/06/22 10:06:52;;;;;;;4.88;3.28;;;;;;;34.35;40.13;100965.78;5023720;28;20037;-65
2021/06/22 10:09:25;;;;;;;7.05;3.65;;;;;;;34.39;40.34;100972.78;5030578;28;20045;-65
2021/06/22 10:12:02;;;;;;;8.45;3.15;;;;;;;34.33;40.18;100971.38;5032809;28;20112;-65
2021/06/22 10:14:31;;;;;;;7.65;3.45;;;;;;;34.29;40.26;100969.00;5034749;28;20133;-65
2021/06/22 10:17:02;;;;;;;7.38;3.15;;;;;;;33.93;41.27;100968.19;5024350;28;20049;-65
2021/06/22 10:19:32;;;;;;;5.80;3.08;;;;;;;34.11;40.96;100970.44;5024023;28;20548;-66
2021/06/22 10:22:01;;;;;;;6.28;3.30;;;;;;;33.53;42.12;100966.78;5023784;28;20042;-65
2021/06/22 10:24:32;;;;;;;10.60;3.35;;;;;;;33.53;42.44;100969.50;5024515;28;20629;-65
2021/06/22 10:27:02;;;;;;;6.97;3.20;;;;;;;33.66;41.91;100974.91;5022821;28;20046;-65
2021/06/22 10:29:31;;;;;;;6.60;3.45;;;;;;;33.69;41.99;100960.94;5024180;28;20168;-65
2021/06/22 10:32:01;;;;;;;8.27;3.13;;;;;;;33.68;41.50;100970.16;5023837;28;20085;-65
2021/06/22 10:34:30;;;;;;;8.70;3.40;;;;;;;33.75;41.57;100975.09;5024541;28;20378;-65
2021/06/22 10:37:01;;;;;;;7.30;3.58;;;;;;;33.89;40.86;100974.88;5024173;28;20034;-65
2021/06/22 10:39:33;;;;;;;6.72;3.50;;;;;;;34.24;40.47;100974.00;5021483;28;20639;-65
2021/06/22 10:42:10;;;;;;;6.57;3.72;;;;;;;34.45;40.17;100969.53;5021992;28;20092;-65
2021/06/22 10:44:45;;;;;;;5.80;3.55;;;;;;;34.73;39.18;100963.53;5029819;28;20107;-65
2021/06/22 10:47:35;;;;;;;8.45;3.70;;;;;;;34.88;38.68;100972.38;5024170;28;20041;-64
2021/06/22 10:50:28;;;;;;;6.65;3.55;;;;;;;35.05;38.55;100977.34;5022877;28;20063;-65
2021/06/22 10:53:08;;;;;;;7.67;4.07;;;;;;;35.36;38.12;100978.44;5030135;28;20045;-64
2021/06/22 10:56:16;;;;;;;10.88;3.58;;;;;;;35.31;38.41;100971.59;5022590;28;20259;-65
2021/06/22 10:59:22;;;;;;;5.97;3.53;;;;;;;35.42;37.60;100972.41;5023366;28;20097;-65
2021/06/22 11:02:05;;;;;;;9.63;3.55;;;;;;;35.21;37.75;100963.25;5045005;28;20041;-65
2021/06/22 11:04:36;;;;;;;9.13;3.70;;;;;;;35.03;38.41;100962.00;5047086;28;20041;-65
2021/06/22 11:07:19;;;;;;;8.85;3.65;;;;;;;35.08;38.00;100957.00;5045571;28;20047;-65
2021/06/22 11:10:17;;;;;;;8.20;3.70;;;;;;;35.32;37.42;100963.19;5030265;28;20043;-64
2021/06/22 11:12:54;;;;;;;7.90;3.45;;;;;;;35.58;36.91;100951.88;4969473;28;20047;-64
2021/06/22 11:15:22;;;;;;;10.80;3.40;;;;;;;36.03;36.14;100949.78;5022014;28;20132;-64
2021/06/22 11:18:00;;;;;;;9.20;3.30;;;;;;;36.42;34.88;100939.88;5027992;28;20042;-65
2021/06/22 11:20:34;;;;;;;8.25;3.58;;;;;;;36.81;34.19;100933.53;5025972;28;20485;-65
2021/06/22 11:23:08;;;;;;;9.80;4.22;;;;;;;36.93;33.44;100940.66;5024988;28;20053;-64
2021/06/22 11:26:02;;;;;;;7.25;3.28;;;;;;;36.90;33.41;100940.06;5039910;28;20033;-65
2021/06/22 11:28:51;;;;;;;8.30;3.30;;;;;;;36.76;34.77;100944.06;5037600;28;20112;-65
2021/06/22 11:31:37;;;;;;;7.80;3.28;;;;;;;36.28;35.50;100944.75;5033894;28;20493;-64
2021/06/22 11:34:06;;;;;;;10.75;3.45;;;;;;;36.24;35.20;100934.13;5036648;28;20029;-64
2021/06/22 11:36:38;;;;;;;6.15;3.33;;;;;;;36.48;34.92;100931.06;5029607;28;20136;-65
2021/06/22 11:39:19;;;;;;;8.25;3.05;;;;;;;36.35;35.10;100931.31;5027020;28;20049;-66
2021/06/22 11:42:24;;;;;;;6.07;3.15;;;;;;;36.27;35.42;100937.50;5044575;28;20044;-65